createdAt,value
2018-01-23T00:05:00.672Z,7.40
2018-01-23T00:10:04.936Z,7.40
2018-01-23T00:15:08.853Z,7.40
2018-01-23T00:20:12.384Z,7.40
2018-01-23T00:25:15.449Z,7.40
2018-01-23T00:30:18.697Z,7.40
2018-01-23T00:40:27.177Z,7.30
2018-01-23T00:50:35.082Z,7.30
2018-01-23T00:55:38.171Z,7.20
2018-01-23T01:00:41.309Z,7.20
2018-01-23T01:05:44.395Z,7.20
2018-01-23T01:15:51.921Z,7.20
2018-01-23T01:20:55.782Z,7.20
2018-01-23T01:25:59.315Z,7.20
2018-01-23T01:31:02.394Z,7.30
2018-01-23T01:36:06.245Z,7.30
2018-01-23T01:46:15.540Z,7.30
2018-01-23T01:56:23.888Z,7.20
2018-01-23T02:01:27.767Z,7.20
2018-01-23T02:06:31.248Z,7.20
2018-01-23T02:11:35.466Z,7.30
2018-01-23T02:21:44.183Z,7.20
2018-01-23T02:26:48.034Z,7.20
2018-01-23T02:31:51.536Z,7.20
2018-01-23T02:36:56.230Z,7.20
2018-01-23T02:41:59.711Z,7.10
2018-01-23T02:47:02.835Z,7.00
2018-01-23T02:52:06.316Z,7.10
2018-01-23T02:57:10.905Z,7.00
2018-01-23T03:02:14.692Z,7.00
2018-01-23T03:07:19.290Z,7.10
2018-01-23T03:12:23.879Z,7.10
2018-01-23T03:17:27.004Z,7.10
2018-01-23T03:22:31.235Z,7.10
2018-01-23T03:27:35.463Z,7.10
2018-01-23T03:32:39.318Z,7.10
2018-01-23T03:37:43.804Z,7.10
2018-01-23T03:42:48.051Z,7.00
2018-01-23T03:47:51.137Z,7.00
2018-01-23T03:58:00.424Z,7.00
2018-01-23T04:03:03.967Z,7.00
2018-01-23T04:08:07.017Z,7.00
2018-01-23T04:13:11.395Z,7.00
2018-01-23T04:18:15.015Z,7.00
2018-01-23T04:23:19.881Z,7.10
2018-01-23T04:28:23.044Z,7.10
2018-01-23T04:38:31.392Z,7.00
2018-01-23T04:43:34.904Z,7.00
2018-01-23T04:48:38.773Z,7.00
2018-01-23T04:53:43.385Z,7.00
2018-01-23T04:58:46.891Z,7.00
2018-01-23T05:03:50.021Z,7.00
2018-01-23T05:08:53.114Z,7.00
2018-01-23T05:19:01.822Z,7.10
2018-01-23T05:24:05.733Z,7.10
2018-01-23T05:29:10.001Z,7.10
2018-01-23T05:34:13.117Z,7.10
2018-01-23T05:39:16.681Z,7.10
2018-01-23T05:44:20.270Z,7.10
2018-01-23T05:49:23.361Z,7.10
2018-01-23T05:54:27.328Z,7.10
2018-01-23T05:59:31.552Z,7.10
2018-01-23T06:04:34.664Z,7.20
2018-01-23T06:09:37.787Z,7.20
2018-01-23T06:14:42.012Z,7.30
2018-01-23T06:19:45.976Z,7.30
2018-01-23T06:24:49.074Z,7.30
2018-01-23T06:29:52.210Z,7.20
2018-01-23T06:34:55.917Z,7.20
2018-01-23T06:39:59.662Z,7.30
2018-01-23T06:45:03.154Z,7.30
2018-01-23T06:50:07.413Z,7.30
2018-01-23T06:55:10.549Z,7.30
2018-01-23T07:00:13.647Z,7.40
2018-01-23T07:05:17.595Z,7.40
2018-01-23T07:10:20.682Z,7.40
2018-01-23T07:30:39.044Z,7.50
2018-01-23T07:35:43.189Z,7.40
2018-01-23T07:40:46.274Z,7.40
2018-01-23T07:45:50.877Z,7.50
2018-01-23T07:50:54.771Z,7.50
2018-01-23T07:55:58.270Z,7.50
2018-01-23T08:01:02.526Z,7.50
2018-01-23T08:06:05.594Z,7.50
2018-01-23T08:11:08.688Z,7.50
2018-01-23T08:16:11.776Z,7.50
2018-01-23T08:21:15.649Z,7.50
2018-01-23T08:26:19.888Z,7.50
2018-01-23T08:31:22.975Z,7.50
2018-01-23T08:36:27.636Z,7.50
2018-01-23T08:41:30.741Z,7.50
2018-01-23T08:46:34.596Z,7.50
2018-01-23T08:51:37.691Z,7.50
2018-01-23T08:56:41.425Z,7.60
2018-01-23T09:01:46.051Z,7.70
2018-01-23T09:06:49.935Z,7.80
2018-01-23T09:16:58.979Z,7.90
2018-01-23T09:22:02.058Z,7.90
2018-01-23T09:27:05.192Z,7.80
2018-01-23T09:32:08.680Z,7.90
2018-01-23T09:37:12.912Z,7.90
2018-01-23T09:42:16.004Z,7.90
2018-01-23T09:47:21.423Z,8.00
2018-01-23T09:52:24.931Z,8.10
2018-01-23T09:57:28.015Z,8.10
2018-01-23T10:02:31.116Z,8.10
2018-01-23T10:07:35.005Z,8.10
2018-01-23T10:12:38.958Z,8.10
2018-01-23T10:17:42.181Z,8.20
2018-01-23T10:22:45.282Z,8.30
2018-01-23T10:27:49.152Z,8.40
2018-01-23T10:37:57.077Z,8.80
2018-01-23T10:43:00.158Z,8.90
2018-01-23T10:48:03.650Z,9.00
2018-01-23T10:53:07.662Z,9.20
2018-01-23T10:58:11.173Z,9.10
2018-01-23T11:03:15.024Z,9.00
2018-01-23T11:08:18.863Z,9.00
2018-01-23T11:13:22.335Z,9.00
2018-01-23T11:18:26.556Z,9.00
2018-01-23T11:23:31.931Z,9.00
2018-01-23T11:28:35.267Z,9.00
2018-01-23T11:33:39.128Z,9.10
2018-01-23T11:38:42.205Z,9.10
2018-01-23T11:43:47.057Z,9.20
2018-01-23T11:48:52.636Z,9.30
2018-01-23T11:53:55.741Z,9.30
2018-01-23T11:58:59.526Z,9.40
2018-01-23T12:04:02.904Z,9.40
2018-01-23T12:09:05.975Z,9.50
2018-01-23T12:14:09.453Z,9.60
2018-01-23T12:19:12.568Z,9.70
2018-01-23T12:29:21.292Z,9.70
2018-01-23T12:34:25.217Z,9.70
2018-01-23T12:39:29.638Z,9.80
2018-01-23T12:44:33.557Z,9.80
2018-01-23T12:49:37.063Z,9.80
2018-01-23T12:54:41.250Z,9.80
2018-01-23T12:59:44.334Z,9.90
2018-01-23T13:04:47.974Z,9.90
2018-01-23T13:09:51.874Z,9.90
2018-01-23T13:14:56.978Z,9.90
2018-01-23T13:20:00.868Z,10.00
2018-01-23T13:25:04.751Z,10.10
2018-01-23T13:30:07.845Z,10.10
2018-01-23T13:35:10.944Z,10.10
2018-01-23T13:40:14.040Z,10.00
2018-01-23T13:50:21.993Z,10.10
2018-01-23T13:55:26.982Z,10.00
2018-01-23T14:00:30.081Z,10.10
2018-01-23T14:05:34.673Z,10.00
2018-01-23T14:10:38.181Z,9.80
2018-01-23T14:15:41.271Z,9.70
2018-01-23T14:25:49.217Z,9.70
2018-01-23T14:35:57.545Z,9.60
2018-01-23T14:41:01.045Z,9.60
2018-01-23T14:46:04.146Z,9.60
2018-01-23T14:51:07.267Z,9.60
2018-01-23T14:56:10.367Z,9.70
2018-01-23T15:01:13.466Z,9.70
2018-01-23T15:06:17.319Z,9.60
2018-01-23T15:11:20.418Z,9.60
2018-01-23T15:21:27.959Z,9.60
2018-01-23T15:26:31.070Z,9.60
2018-01-23T15:31:35.669Z,9.70
2018-01-23T15:36:39.163Z,9.60
2018-01-23T15:41:42.287Z,9.60
2018-01-23T15:46:46.171Z,9.60
2018-01-23T15:51:50.044Z,9.70
2018-01-23T15:56:53.564Z,9.70
2018-01-23T16:07:01.864Z,9.70
2018-01-23T16:17:10.690Z,9.70
2018-01-23T16:22:13.769Z,9.70
2018-01-23T16:27:17.926Z,9.70
2018-01-23T16:32:21.406Z,9.70
2018-01-23T16:37:24.504Z,9.70
2018-01-23T16:42:27.613Z,9.70
2018-01-23T16:47:30.705Z,9.70
2018-01-23T16:52:33.830Z,9.70
2018-01-23T16:57:36.918Z,9.70
2018-01-23T17:02:40.419Z,9.70
2018-01-23T17:07:45.021Z,9.60
2018-01-23T17:12:48.512Z,9.60
2018-01-23T17:17:51.649Z,9.60
2018-01-23T17:22:55.057Z,9.60
2018-01-23T17:27:58.917Z,9.60
2018-01-23T17:38:08.002Z,9.60
2018-01-23T17:43:11.866Z,9.60
2018-01-23T17:48:16.583Z,9.60
2018-01-23T17:53:20.072Z,9.50
2018-01-23T18:03:27.593Z,9.60
2018-01-23T18:08:31.084Z,9.60
2018-01-23T18:13:35.160Z,9.70
2018-01-23T18:18:39.012Z,9.70
2018-01-23T18:23:42.873Z,9.70
2018-01-23T18:28:45.975Z,9.70
2018-01-23T18:33:50.229Z,9.80
2018-01-23T18:38:54.909Z,9.70
2018-01-23T18:43:58.752Z,9.70
2018-01-23T18:49:02.593Z,9.60
2018-01-23T18:54:06.436Z,9.60
2018-01-23T18:59:09.913Z,9.60
2018-01-23T19:04:14.092Z,9.60
2018-01-23T19:09:17.972Z,9.60
2018-01-23T19:14:22.214Z,9.60
2018-01-23T19:19:26.164Z,9.70
2018-01-23T19:24:30.908Z,9.70
2018-01-23T19:29:35.144Z,9.70
2018-01-23T19:39:43.121Z,9.80
2018-01-23T19:44:46.235Z,9.70
2018-01-23T19:49:50.063Z,9.70
2018-01-23T19:54:54.296Z,9.70
2018-01-23T19:59:57.445Z,9.80
2018-01-23T20:05:01.299Z,9.70
2018-01-23T20:15:09.431Z,9.80
2018-01-23T20:25:17.765Z,9.80
2018-01-23T20:30:21.624Z,9.80
2018-01-23T20:40:31.867Z,9.90
2018-01-23T20:45:35.742Z,9.90
2018-01-23T20:50:38.825Z,9.90
2018-01-23T20:55:42.067Z,9.90
2018-01-23T21:00:45.917Z,9.90
2018-01-23T21:05:49.395Z,9.90
2018-01-23T21:10:52.797Z,9.90
2018-01-23T21:15:55.889Z,9.90
2018-01-23T21:20:58.979Z,9.90
2018-01-23T21:31:07.005Z,9.90
2018-01-23T21:36:10.471Z,10.00
2018-01-23T21:41:13.575Z,10.00
2018-01-23T21:46:16.683Z,9.90
2018-01-23T21:51:20.566Z,10.00
2018-01-23T21:56:23.681Z,10.00
2018-01-23T22:01:26.814Z,10.00
2018-01-23T22:11:34.766Z,10.10
2018-01-23T22:16:38.261Z,10.10
2018-01-23T22:21:41.355Z,10.10
2018-01-23T22:26:46.316Z,10.10
2018-01-23T22:31:49.406Z,10.10
2018-01-23T22:47:02.474Z,10.30
2018-01-23T22:52:05.585Z,10.30
2018-01-23T22:57:09.105Z,10.30
2018-01-23T23:02:12.985Z,10.30
2018-01-23T23:07:16.805Z,10.30
2018-01-23T23:12:19.890Z,10.40
2018-01-23T23:17:24.684Z,10.30
2018-01-23T23:22:28.190Z,10.30
2018-01-23T23:27:32.053Z,10.30
2018-01-23T23:32:35.954Z,10.40
2018-01-23T23:37:39.077Z,10.40
2018-01-23T23:42:42.170Z,10.50
2018-01-23T23:47:45.271Z,10.40
2018-01-23T23:52:48.343Z,10.40
2018-01-23T23:57:52.205Z,10.40
